sensor_id;sensor_type;location;lat;lon;timestamp;temperature;humidity
1083;DHT22;530;51.448;7.238;2024-02-15T00:02:23;12.10;99.90
1083;DHT22;530;51.448;7.238;2024-02-15T00:04:48;12.10;99.90
1083;DHT22;530;51.448;7.238;2024-02-15T00:07:14;12.10;99.90
1083;DHT22;530;51.448;7.238;2024-02-15T00:09:40;12.10;99.90
1083;DHT22;530;51.448;7.238;2024-02-15T00:12:05;12.10;99.90
1083;DHT22;530;51.448;7.238;2024-02-15T00:14:31;12.20;99.90
1083;DHT22;530;51.448;7.238;2024-02-15T00:16:57;12.10;99.90
1083;DHT22;530;51.448;7.238;2024-02-15T00:19:23;12.20;99.90
1083;DHT22;530;51.448;7.238;2024-02-15T00:21:49;12.10;99.90
1083;DHT22;530;51.448;7.238;2024-02-15T00:24:15;12.10;99.90
1083;DHT22;530;51.448;7.238;2024-02-15T00:26:41;12.10;99.90
1083;DHT22;530;51.448;7.238;2024-02-15T00:29:10;12.10;99.90
1083;DHT22;530;51.448;7.238;2024-02-15T00:31:35;12.10;99.90
1083;DHT22;530;51.448;7.238;2024-02-15T00:34:01;12.10;99.90
1083;DHT22;530;51.448;7.238;2024-02-15T00:36:28;12.10;99.90
1083;DHT22;530;51.448;7.238;2024-02-15T00:38:55;12.10;99.90
1083;DHT22;530;51.448;7.238;2024-02-15T00:41:21;12.10;99.90
1083;DHT22;530;51.448;7.238;2024-02-15T00:43:47;12.10;99.90
1083;DHT22;530;51.448;7.238;2024-02-15T00:46:13;12.10;99.90
1083;DHT22;530;51.448;7.238;2024-02-15T00:48:39;12.10;99.90
1083;DHT22;530;51.448;7.238;2024-02-15T00:51:06;12.10;99.90
1083;DHT22;530;51.448;7.238;2024-02-15T00:53:32;12.10;99.90
1083;DHT22;530;51.448;7.238;2024-02-15T00:55:58;12.10;99.90
1083;DHT22;530;51.448;7.238;2024-02-15T00:58:24;12.10;99.90
1083;DHT22;530;51.448;7.238;2024-02-15T01:00:50;12.10;99.90
1083;DHT22;530;51.448;7.238;2024-02-15T01:03:16;12.10;99.90
1083;DHT22;530;51.448;7.238;2024-02-15T01:05:42;12.10;99.90
1083;DHT22;530;51.448;7.238;2024-02-15T01:08:07;12.10;99.90
1083;DHT22;530;51.448;7.238;2024-02-15T01:10:34;12.10;99.90
1083;DHT22;530;51.448;7.238;2024-02-15T01:13:00;12.20;99.90
1083;DHT22;530;51.448;7.238;2024-02-15T01:15:26;12.10;99.90
1083;DHT22;530;51.448;7.238;2024-02-15T01:17:52;12.10;99.90
1083;DHT22;530;51.448;7.238;2024-02-15T01:20:17;12.10;99.90
1083;DHT22;530;51.448;7.238;2024-02-15T01:22:43;12.10;99.90
1083;DHT22;530;51.448;7.238;2024-02-15T01:25:10;12.10;99.90
1083;DHT22;530;51.448;7.238;2024-02-15T01:27:36;12.10;99.90
1083;DHT22;530;51.448;7.238;2024-02-15T01:30:03;12.10;99.90
1083;DHT22;530;51.448;7.238;2024-02-15T01:32:29;12.10;99.90
1083;DHT22;530;51.448;7.238;2024-02-15T01:34:56;12.20;99.90
1083;DHT22;530;51.448;7.238;2024-02-15T01:37:22;12.20;99.90
1083;DHT22;530;51.448;7.238;2024-02-15T01:39:48;12.20;99.90
1083;DHT22;530;51.448;7.238;2024-02-15T01:42:14;12.20;99.90
1083;DHT22;530;51.448;7.238;2024-02-15T01:44:40;12.20;99.90
1083;DHT22;530;51.448;7.238;2024-02-15T01:47:06;12.20;99.90
1083;DHT22;530;51.448;7.238;2024-02-15T01:49:34;12.20;99.90
1083;DHT22;530;51.448;7.238;2024-02-15T01:52:00;12.20;99.90
1083;DHT22;530;51.448;7.238;2024-02-15T01:54:27;12.30;99.90
1083;DHT22;530;51.448;7.238;2024-02-15T01:56:53;12.30;99.90
1083;DHT22;530;51.448;7.238;2024-02-15T01:59:22;12.30;99.90
1083;DHT22;530;51.448;7.238;2024-02-15T02:01:48;12.30;99.90
1083;DHT22;530;51.448;7.238;2024-02-15T02:04:15;12.30;99.90
1083;DHT22;530;51.448;7.238;2024-02-15T02:06:41;12.30;99.90
1083;DHT22;530;51.448;7.238;2024-02-15T02:09:10;12.30;99.90
1083;DHT22;530;51.448;7.238;2024-02-15T02:11:38;12.30;99.90
1083;DHT22;530;51.448;7.238;2024-02-15T02:14:04;12.30;99.90
1083;DHT22;530;51.448;7.238;2024-02-15T02:16:31;12.30;99.90
1083;DHT22;530;51.448;7.238;2024-02-15T02:19:01;12.30;99.90
1083;DHT22;530;51.448;7.238;2024-02-15T02:21:28;12.30;99.90
1083;DHT22;530;51.448;7.238;2024-02-15T02:23:56;12.30;99.90
1083;DHT22;530;51.448;7.238;2024-02-15T02:26:23;12.30;99.90
1083;DHT22;530;51.448;7.238;2024-02-15T02:28:49;12.20;99.90
1083;DHT22;530;51.448;7.238;2024-02-15T02:31:15;12.20;99.90
1083;DHT22;530;51.448;7.238;2024-02-15T02:33:53;12.20;99.90
1083;DHT22;530;51.448;7.238;2024-02-15T02:36:19;12.20;99.90
1083;DHT22;530;51.448;7.238;2024-02-15T02:38:45;12.20;99.90
1083;DHT22;530;51.448;7.238;2024-02-15T02:41:12;12.20;99.90
1083;DHT22;530;51.448;7.238;2024-02-15T02:43:40;12.20;99.90
1083;DHT22;530;51.448;7.238;2024-02-15T02:46:06;12.20;99.90
1083;DHT22;530;51.448;7.238;2024-02-15T02:48:36;12.20;99.90
1083;DHT22;530;51.448;7.238;2024-02-15T02:51:02;12.20;99.90
1083;DHT22;530;51.448;7.238;2024-02-15T02:53:28;12.20;99.90
1083;DHT22;530;51.448;7.238;2024-02-15T02:55:56;12.20;99.90
1083;DHT22;530;51.448;7.238;2024-02-15T02:58:22;12.20;99.90
1083;DHT22;530;51.448;7.238;2024-02-15T03:00:49;12.20;99.90
1083;DHT22;530;51.448;7.238;2024-02-15T03:03:15;12.20;99.90
1083;DHT22;530;51.448;7.238;2024-02-15T03:05:41;12.20;99.90
1083;DHT22;530;51.448;7.238;2024-02-15T03:08:12;12.20;99.90
1083;DHT22;530;51.448;7.238;2024-02-15T03:10:38;12.20;99.90
1083;DHT22;530;51.448;7.238;2024-02-15T03:13:05;12.20;99.90
1083;DHT22;530;51.448;7.238;2024-02-15T03:15:32;12.20;99.90
1083;DHT22;530;51.448;7.238;2024-02-15T03:17:58;12.20;99.90
1083;DHT22;530;51.448;7.238;2024-02-15T03:20:24;12.20;99.90
1083;DHT22;530;51.448;7.238;2024-02-15T03:22:57;12.20;99.90
1083;DHT22;530;51.448;7.238;2024-02-15T03:25:24;12.20;99.90
1083;DHT22;530;51.448;7.238;2024-02-15T03:27:54;12.20;99.90
1083;DHT22;530;51.448;7.238;2024-02-15T03:30:23;12.10;99.90
1083;DHT22;530;51.448;7.238;2024-02-15T03:32:55;12.10;99.90
1083;DHT22;530;51.448;7.238;2024-02-15T03:35:23;12.10;99.90
1083;DHT22;530;51.448;7.238;2024-02-15T03:37:49;12.10;99.90
1083;DHT22;530;51.448;7.238;2024-02-15T03:40:17;12.10;99.90
1083;DHT22;530;51.448;7.238;2024-02-15T03:42:42;12.10;99.90
1083;DHT22;530;51.448;7.238;2024-02-15T03:45:08;12.20;99.90
1083;DHT22;530;51.448;7.238;2024-02-15T03:47:35;12.20;99.90
1083;DHT22;530;51.448;7.238;2024-02-15T03:50:07;12.20;99.90
1083;DHT22;530;51.448;7.238;2024-02-15T03:52:37;12.20;99.90
1083;DHT22;530;51.448;7.238;2024-02-15T03:55:03;12.20;99.90
1083;DHT22;530;51.448;7.238;2024-02-15T03:57:29;12.20;99.90
1083;DHT22;530;51.448;7.238;2024-02-15T03:59:55;12.20;99.90
1083;DHT22;530;51.448;7.238;2024-02-15T04:02:25;12.30;99.90
1083;DHT22;530;51.448;7.238;2024-02-15T04:04:54;12.30;99.90
1083;DHT22;530;51.448;7.238;2024-02-15T04:07:24;12.20;99.90
1083;DHT22;530;51.448;7.238;2024-02-15T04:09:52;12.20;99.90
1083;DHT22;530;51.448;7.238;2024-02-15T04:12:18;12.20;99.90
1083;DHT22;530;51.448;7.238;2024-02-15T04:14:44;12.20;99.90
1083;DHT22;530;51.448;7.238;2024-02-15T04:17:11;12.30;99.90
1083;DHT22;530;51.448;7.238;2024-02-15T04:19:41;12.20;99.90
1083;DHT22;530;51.448;7.238;2024-02-15T04:22:06;12.20;99.90
1083;DHT22;530;51.448;7.238;2024-02-15T04:24:36;12.20;99.90
1083;DHT22;530;51.448;7.238;2024-02-15T04:27:08;12.20;99.90
1083;DHT22;530;51.448;7.238;2024-02-15T04:29:37;12.30;99.90
1083;DHT22;530;51.448;7.238;2024-02-15T04:32:06;12.30;99.90
1083;DHT22;530;51.448;7.238;2024-02-15T04:34:39;12.30;99.90
1083;DHT22;530;51.448;7.238;2024-02-15T04:37:05;12.30;99.90
1083;DHT22;530;51.448;7.238;2024-02-15T04:39:36;12.30;99.90
1083;DHT22;530;51.448;7.238;2024-02-15T04:42:03;12.30;99.90
1083;DHT22;530;51.448;7.238;2024-02-15T04:44:30;12.30;99.90
1083;DHT22;530;51.448;7.238;2024-02-15T04:47:01;12.30;99.90
1083;DHT22;530;51.448;7.238;2024-02-15T04:49:29;12.30;99.90
1083;DHT22;530;51.448;7.238;2024-02-15T04:51:55;12.30;99.90
1083;DHT22;530;51.448;7.238;2024-02-15T04:54:22;12.30;99.90
1083;DHT22;530;51.448;7.238;2024-02-15T04:56:48;12.30;99.90
1083;DHT22;530;51.448;7.238;2024-02-15T04:59:16;12.30;99.90
1083;DHT22;530;51.448;7.238;2024-02-15T05:01:42;12.30;99.90
1083;DHT22;530;51.448;7.238;2024-02-15T05:04:11;12.30;99.90
1083;DHT22;530;51.448;7.238;2024-02-15T05:06:37;12.30;99.90
1083;DHT22;530;51.448;7.238;2024-02-15T05:09:04;12.30;99.90
1083;DHT22;530;51.448;7.238;2024-02-15T05:11:36;12.30;99.90
1083;DHT22;530;51.448;7.238;2024-02-15T05:14:05;12.30;99.90
1083;DHT22;530;51.448;7.238;2024-02-15T05:16:33;12.30;99.90
1083;DHT22;530;51.448;7.238;2024-02-15T05:18:58;12.30;99.90
1083;DHT22;530;51.448;7.238;2024-02-15T05:21:24;12.40;99.90
1083;DHT22;530;51.448;7.238;2024-02-15T05:23:50;12.40;99.90
1083;DHT22;530;51.448;7.238;2024-02-15T05:26:18;12.30;99.90
1083;DHT22;530;51.448;7.238;2024-02-15T05:28:49;12.30;99.90
1083;DHT22;530;51.448;7.238;2024-02-15T05:31:19;12.30;99.90
1083;DHT22;530;51.448;7.238;2024-02-15T05:33:51;12.30;99.90
1083;DHT22;530;51.448;7.238;2024-02-15T05:36:21;12.30;99.90
1083;DHT22;530;51.448;7.238;2024-02-15T05:38:50;12.20;99.90
1083;DHT22;530;51.448;7.238;2024-02-15T05:41:17;12.30;99.90
1083;DHT22;530;51.448;7.238;2024-02-15T05:43:42;12.30;99.90
1083;DHT22;530;51.448;7.238;2024-02-15T05:46:09;12.30;99.90
1083;DHT22;530;51.448;7.238;2024-02-15T05:48:36;12.30;99.90
1083;DHT22;530;51.448;7.238;2024-02-15T05:51:06;12.30;99.90
1083;DHT22;530;51.448;7.238;2024-02-15T05:53:32;12.20;99.90
1083;DHT22;530;51.448;7.238;2024-02-15T05:56:02;12.20;99.90
1083;DHT22;530;51.448;7.238;2024-02-15T05:58:32;12.20;99.90
1083;DHT22;530;51.448;7.238;2024-02-15T06:00:59;12.30;99.90
1083;DHT22;530;51.448;7.238;2024-02-15T06:03:32;12.30;99.90
1083;DHT22;530;51.448;7.238;2024-02-15T06:06:02;12.30;99.90
1083;DHT22;530;51.448;7.238;2024-02-15T06:08:32;12.20;99.90
1083;DHT22;530;51.448;7.238;2024-02-15T06:10:58;12.20;99.90
1083;DHT22;530;51.448;7.238;2024-02-15T06:13:25;12.20;99.90
1083;DHT22;530;51.448;7.238;2024-02-15T06:15:52;12.20;99.90
1083;DHT22;530;51.448;7.238;2024-02-15T06:18:26;12.20;99.90
1083;DHT22;530;51.448;7.238;2024-02-15T06:20:59;12.20;99.90
1083;DHT22;530;51.448;7.238;2024-02-15T06:23:26;12.20;99.90
1083;DHT22;530;51.448;7.238;2024-02-15T06:25:54;12.20;99.90
1083;DHT22;530;51.448;7.238;2024-02-15T06:28:22;12.20;99.90
1083;DHT22;530;51.448;7.238;2024-02-15T06:31:10;12.20;99.90
1083;DHT22;530;51.448;7.238;2024-02-15T06:33:55;12.30;99.90
1083;DHT22;530;51.448;7.238;2024-02-15T06:36:56;12.20;99.90
1083;DHT22;530;51.448;7.238;2024-02-15T06:39:41;12.20;99.90
1083;DHT22;530;51.448;7.238;2024-02-15T06:42:25;12.20;99.90
1083;DHT22;530;51.448;7.238;2024-02-15T06:44:52;12.20;99.90
1083;DHT22;530;51.448;7.238;2024-02-15T06:47:17;12.20;99.90
1083;DHT22;530;51.448;7.238;2024-02-15T06:49:45;12.20;99.90
1083;DHT22;530;51.448;7.238;2024-02-15T06:52:11;12.20;99.90
1083;DHT22;530;51.448;7.238;2024-02-15T06:54:38;12.30;99.90
1083;DHT22;530;51.448;7.238;2024-02-15T06:57:04;12.30;99.90
1083;DHT22;530;51.448;7.238;2024-02-15T06:59:31;12.20;99.90
1083;DHT22;530;51.448;7.238;2024-02-15T07:02:00;12.30;99.90
1083;DHT22;530;51.448;7.238;2024-02-15T07:04:27;12.20;99.90
1083;DHT22;530;51.448;7.238;2024-02-15T07:06:53;12.20;99.90
1083;DHT22;530;51.448;7.238;2024-02-15T07:09:20;12.20;99.90
1083;DHT22;530;51.448;7.238;2024-02-15T07:11:48;12.20;99.90
1083;DHT22;530;51.448;7.238;2024-02-15T07:14:14;12.20;99.90
1083;DHT22;530;51.448;7.238;2024-02-15T07:16:47;12.10;99.90
1083;DHT22;530;51.448;7.238;2024-02-15T07:19:15;12.10;99.90
1083;DHT22;530;51.448;7.238;2024-02-15T07:21:41;12.20;99.90
1083;DHT22;530;51.448;7.238;2024-02-15T07:24:07;12.20;99.90
1083;DHT22;530;51.448;7.238;2024-02-15T07:26:33;12.10;99.90
1083;DHT22;530;51.448;7.238;2024-02-15T07:29:00;12.10;99.90
1083;DHT22;530;51.448;7.238;2024-02-15T07:31:29;12.20;99.90
1083;DHT22;530;51.448;7.238;2024-02-15T07:33:55;12.10;99.90
1083;DHT22;530;51.448;7.238;2024-02-15T07:36:22;12.10;99.90
1083;DHT22;530;51.448;7.238;2024-02-15T07:38:48;12.10;99.90
1083;DHT22;530;51.448;7.238;2024-02-15T07:41:23;12.20;99.90
1083;DHT22;530;51.448;7.238;2024-02-15T07:43:49;12.20;99.90
1083;DHT22;530;51.448;7.238;2024-02-15T07:46:16;12.20;99.90
1083;DHT22;530;51.448;7.238;2024-02-15T07:48:43;12.10;99.90
1083;DHT22;530;51.448;7.238;2024-02-15T07:51:15;12.10;99.90
1083;DHT22;530;51.448;7.238;2024-02-15T07:53:42;12.00;99.90
1083;DHT22;530;51.448;7.238;2024-02-15T07:56:11;12.00;99.90
1083;DHT22;530;51.448;7.238;2024-02-15T07:58:44;11.90;99.90
1083;DHT22;530;51.448;7.238;2024-02-15T08:01:14;11.90;99.90
1083;DHT22;530;51.448;7.238;2024-02-15T08:03:40;11.90;99.90
1083;DHT22;530;51.448;7.238;2024-02-15T08:06:12;12.00;99.90
1083;DHT22;530;51.448;7.238;2024-02-15T08:08:42;12.00;99.90
1083;DHT22;530;51.448;7.238;2024-02-15T08:11:11;12.00;99.90
1083;DHT22;530;51.448;7.238;2024-02-15T08:13:47;12.00;99.90
1083;DHT22;530;51.448;7.238;2024-02-15T08:16:23;12.10;99.90
1083;DHT22;530;51.448;7.238;2024-02-15T08:18:50;12.00;99.90
1083;DHT22;530;51.448;7.238;2024-02-15T08:23:52;12.00;99.90
1083;DHT22;530;51.448;7.238;2024-02-15T08:26:18;12.00;99.90
1083;DHT22;530;51.448;7.238;2024-02-15T08:28:44;12.10;99.90
1083;DHT22;530;51.448;7.238;2024-02-15T08:31:09;12.10;99.90
1083;DHT22;530;51.448;7.238;2024-02-15T08:33:37;12.20;99.90
1083;DHT22;530;51.448;7.238;2024-02-15T08:36:04;12.20;99.90
1083;DHT22;530;51.448;7.238;2024-02-15T08:38:30;12.20;99.90
1083;DHT22;530;51.448;7.238;2024-02-15T08:40:56;12.20;99.90
1083;DHT22;530;51.448;7.238;2024-02-15T08:43:22;12.20;99.90
1083;DHT22;530;51.448;7.238;2024-02-15T08:45:48;12.30;99.90
1083;DHT22;530;51.448;7.238;2024-02-15T08:48:16;12.30;99.90
1083;DHT22;530;51.448;7.238;2024-02-15T08:50:42;12.20;99.90
1083;DHT22;530;51.448;7.238;2024-02-15T08:53:08;12.20;99.90
1083;DHT22;530;51.448;7.238;2024-02-15T08:55:33;12.30;99.90
1083;DHT22;530;51.448;7.238;2024-02-15T08:58:01;12.30;99.90
1083;DHT22;530;51.448;7.238;2024-02-15T09:00:27;12.30;99.90
1083;DHT22;530;51.448;7.238;2024-02-15T09:02:53;12.30;99.90
1083;DHT22;530;51.448;7.238;2024-02-15T09:05:19;12.30;99.90
1083;DHT22;530;51.448;7.238;2024-02-15T09:07:47;12.30;99.90
1083;DHT22;530;51.448;7.238;2024-02-15T09:10:14;12.40;99.90
1083;DHT22;530;51.448;7.238;2024-02-15T09:12:41;12.30;99.90
1083;DHT22;530;51.448;7.238;2024-02-15T09:15:08;12.40;99.90
1083;DHT22;530;51.448;7.238;2024-02-15T09:17:34;12.30;99.90
1083;DHT22;530;51.448;7.238;2024-02-15T09:20:14;12.40;99.90
1083;DHT22;530;51.448;7.238;2024-02-15T09:22:42;12.40;99.90
1083;DHT22;530;51.448;7.238;2024-02-15T09:25:08;12.30;99.90
1083;DHT22;530;51.448;7.238;2024-02-15T09:27:34;12.40;99.90
1083;DHT22;530;51.448;7.238;2024-02-15T09:30:00;12.30;99.90
1083;DHT22;530;51.448;7.238;2024-02-15T09:32:26;12.30;99.90
1083;DHT22;530;51.448;7.238;2024-02-15T09:34:51;12.30;99.90
1083;DHT22;530;51.448;7.238;2024-02-15T09:37:17;12.30;99.90
1083;DHT22;530;51.448;7.238;2024-02-15T09:39:43;12.30;99.90
1083;DHT22;530;51.448;7.238;2024-02-15T09:42:08;12.40;99.90
1083;DHT22;530;51.448;7.238;2024-02-15T09:44:34;12.40;99.90
1083;DHT22;530;51.448;7.238;2024-02-15T09:47:04;12.40;99.90
1083;DHT22;530;51.448;7.238;2024-02-15T09:49:39;12.40;99.90
1083;DHT22;530;51.448;7.238;2024-02-15T09:52:09;12.40;99.90
1083;DHT22;530;51.448;7.238;2024-02-15T09:54:42;12.40;99.90
1083;DHT22;530;51.448;7.238;2024-02-15T09:57:11;12.40;99.90
1083;DHT22;530;51.448;7.238;2024-02-15T09:59:38;12.30;99.90
1083;DHT22;530;51.448;7.238;2024-02-15T10:02:04;12.30;99.90
1083;DHT22;530;51.448;7.238;2024-02-15T10:04:34;12.40;99.90
1083;DHT22;530;51.448;7.238;2024-02-15T10:07:00;12.40;99.90
1083;DHT22;530;51.448;7.238;2024-02-15T10:09:30;12.40;99.90
1083;DHT22;530;51.448;7.238;2024-02-15T10:11:57;12.50;99.90
1083;DHT22;530;51.448;7.238;2024-02-15T10:14:26;12.50;99.90
1083;DHT22;530;51.448;7.238;2024-02-15T10:16:53;12.50;99.90
1083;DHT22;530;51.448;7.238;2024-02-15T10:19:22;12.50;99.90
1083;DHT22;530;51.448;7.238;2024-02-15T10:21:52;12.50;99.90
1083;DHT22;530;51.448;7.238;2024-02-15T10:24:24;12.50;99.90
1083;DHT22;530;51.448;7.238;2024-02-15T10:26:50;12.50;99.90
1083;DHT22;530;51.448;7.238;2024-02-15T10:29:16;12.50;99.90
1083;DHT22;530;51.448;7.238;2024-02-15T10:31:59;12.50;99.90
1083;DHT22;530;51.448;7.238;2024-02-15T10:34:26;12.60;99.90
1083;DHT22;530;51.448;7.238;2024-02-15T10:37:14;12.50;99.90
1083;DHT22;530;51.448;7.238;2024-02-15T10:39:45;12.50;99.90
1083;DHT22;530;51.448;7.238;2024-02-15T10:42:13;12.60;99.90
1083;DHT22;530;51.448;7.238;2024-02-15T10:44:39;12.60;99.90
1083;DHT22;530;51.448;7.238;2024-02-15T10:47:07;12.60;99.90
1083;DHT22;530;51.448;7.238;2024-02-15T10:49:36;12.60;99.90
1083;DHT22;530;51.448;7.238;2024-02-15T10:52:02;12.70;99.90
1083;DHT22;530;51.448;7.238;2024-02-15T10:54:47;12.80;99.90
1083;DHT22;530;51.448;7.238;2024-02-15T10:57:22;12.80;99.90
1083;DHT22;530;51.448;7.238;2024-02-15T10:59:55;12.90;99.90
1083;DHT22;530;51.448;7.238;2024-02-15T11:02:28;12.90;99.90
1083;DHT22;530;51.448;7.238;2024-02-15T11:05:08;12.90;99.90
1083;DHT22;530;51.448;7.238;2024-02-15T11:07:40;12.90;99.90
1083;DHT22;530;51.448;7.238;2024-02-15T11:10:09;12.90;99.90
1083;DHT22;530;51.448;7.238;2024-02-15T11:12:37;13.00;99.90
1083;DHT22;530;51.448;7.238;2024-02-15T11:15:03;13.00;99.90
1083;DHT22;530;51.448;7.238;2024-02-15T11:20:09;13.10;99.90
1083;DHT22;530;51.448;7.238;2024-02-15T11:22:37;13.00;99.90
1083;DHT22;530;51.448;7.238;2024-02-15T11:25:05;13.10;99.90
1083;DHT22;530;51.448;7.238;2024-02-15T11:27:35;13.10;99.90
1083;DHT22;530;51.448;7.238;2024-02-15T11:30:04;13.10;99.90
1083;DHT22;530;51.448;7.238;2024-02-15T11:35:13;13.20;99.90
1083;DHT22;530;51.448;7.238;2024-02-15T11:40:15;13.10;99.90
1083;DHT22;530;51.448;7.238;2024-02-15T11:42:45;13.20;99.90
1083;DHT22;530;51.448;7.238;2024-02-15T11:45:12;13.20;99.90
1083;DHT22;530;51.448;7.238;2024-02-15T11:47:39;13.30;99.90
1083;DHT22;530;51.448;7.238;2024-02-15T11:50:09;13.20;99.90
1083;DHT22;530;51.448;7.238;2024-02-15T11:52:40;13.20;99.90
1083;DHT22;530;51.448;7.238;2024-02-15T11:55:08;13.20;99.90
1083;DHT22;530;51.448;7.238;2024-02-15T11:57:37;13.30;99.90
1083;DHT22;530;51.448;7.238;2024-02-15T12:00:21;13.30;99.90
1083;DHT22;530;51.448;7.238;2024-02-15T12:03:05;13.30;99.90
1083;DHT22;530;51.448;7.238;2024-02-15T12:05:50;13.30;99.90
1083;DHT22;530;51.448;7.238;2024-02-15T12:08:35;13.30;99.90
1083;DHT22;530;51.448;7.238;2024-02-15T12:11:19;13.20;99.90
1083;DHT22;530;51.448;7.238;2024-02-15T12:14:03;13.30;99.90
1083;DHT22;530;51.448;7.238;2024-02-15T12:17:08;13.30;99.90
1083;DHT22;530;51.448;7.238;2024-02-15T12:19:54;13.30;99.90
1083;DHT22;530;51.448;7.238;2024-02-15T12:22:30;13.40;99.90
1083;DHT22;530;51.448;7.238;2024-02-15T12:25:01;13.40;99.90
1083;DHT22;530;51.448;7.238;2024-02-15T12:27:27;13.60;99.90
1083;DHT22;530;51.448;7.238;2024-02-15T12:29:57;13.70;99.90
1083;DHT22;530;51.448;7.238;2024-02-15T12:32:24;13.80;99.90
1083;DHT22;530;51.448;7.238;2024-02-15T12:34:51;13.90;99.90
1083;DHT22;530;51.448;7.238;2024-02-15T12:37:22;13.90;99.90
1083;DHT22;530;51.448;7.238;2024-02-15T12:39:49;14.10;99.90
1083;DHT22;530;51.448;7.238;2024-02-15T12:42:18;14.10;99.90
1083;DHT22;530;51.448;7.238;2024-02-15T12:44:47;14.20;99.90
1083;DHT22;530;51.448;7.238;2024-02-15T12:47:21;14.20;99.90
1083;DHT22;530;51.448;7.238;2024-02-15T12:49:47;14.30;99.90
1083;DHT22;530;51.448;7.238;2024-02-15T12:52:35;14.40;99.90
1083;DHT22;530;51.448;7.238;2024-02-15T12:55:12;14.40;99.90
1083;DHT22;530;51.448;7.238;2024-02-15T12:57:38;14.40;99.90
1083;DHT22;530;51.448;7.238;2024-02-15T13:00:08;14.50;99.90
1083;DHT22;530;51.448;7.238;2024-02-15T13:02:39;14.50;99.90
1083;DHT22;530;51.448;7.238;2024-02-15T13:05:05;14.50;99.90
1083;DHT22;530;51.448;7.238;2024-02-15T13:07:34;14.50;99.90
1083;DHT22;530;51.448;7.238;2024-02-15T13:10:00;14.70;99.90
1083;DHT22;530;51.448;7.238;2024-02-15T13:12:26;14.70;99.90
1083;DHT22;530;51.448;7.238;2024-02-15T13:14:53;14.70;99.90
1083;DHT22;530;51.448;7.238;2024-02-15T13:17:20;14.80;99.90
1083;DHT22;530;51.448;7.238;2024-02-15T13:19:46;14.90;99.90
1083;DHT22;530;51.448;7.238;2024-02-15T13:22:15;14.90;99.90
1083;DHT22;530;51.448;7.238;2024-02-15T13:24:46;14.90;99.90
1083;DHT22;530;51.448;7.238;2024-02-15T13:27:12;15.00;99.90
1083;DHT22;530;51.448;7.238;2024-02-15T13:29:41;15.00;99.90
1083;DHT22;530;51.448;7.238;2024-02-15T13:32:07;15.00;99.90
1083;DHT22;530;51.448;7.238;2024-02-15T13:34:32;15.10;99.90
1083;DHT22;530;51.448;7.238;2024-02-15T13:37:02;15.10;99.90
1083;DHT22;530;51.448;7.238;2024-02-15T13:39:30;15.10;99.90
1083;DHT22;530;51.448;7.238;2024-02-15T13:42:02;15.00;99.90
1083;DHT22;530;51.448;7.238;2024-02-15T13:44:27;15.10;99.90
1083;DHT22;530;51.448;7.238;2024-02-15T13:46:57;14.90;99.90
1083;DHT22;530;51.448;7.238;2024-02-15T13:49:22;14.90;99.90
1083;DHT22;530;51.448;7.238;2024-02-15T13:51:48;15.00;99.90
1083;DHT22;530;51.448;7.238;2024-02-15T13:54:17;15.00;99.90
1083;DHT22;530;51.448;7.238;2024-02-15T13:56:43;14.90;99.90
1083;DHT22;530;51.448;7.238;2024-02-15T13:59:09;14.90;99.90
1083;DHT22;530;51.448;7.238;2024-02-15T14:01:35;14.90;99.90
1083;DHT22;530;51.448;7.238;2024-02-15T14:04:08;14.90;99.90
1083;DHT22;530;51.448;7.238;2024-02-15T14:06:35;14.90;99.90
1083;DHT22;530;51.448;7.238;2024-02-15T14:09:03;15.00;99.90
1083;DHT22;530;51.448;7.238;2024-02-15T14:11:29;15.00;99.90
1083;DHT22;530;51.448;7.238;2024-02-15T14:13:54;15.00;99.90
1083;DHT22;530;51.448;7.238;2024-02-15T14:16:24;14.90;99.90
1083;DHT22;530;51.448;7.238;2024-02-15T14:18:50;14.90;99.90
1083;DHT22;530;51.448;7.238;2024-02-15T14:21:17;14.80;99.90
1083;DHT22;530;51.448;7.238;2024-02-15T14:23:44;14.90;99.90
1083;DHT22;530;51.448;7.238;2024-02-15T14:26:10;14.90;99.90
1083;DHT22;530;51.448;7.238;2024-02-15T14:28:35;14.90;99.90
1083;DHT22;530;51.448;7.238;2024-02-15T14:31:01;14.90;99.90
1083;DHT22;530;51.448;7.238;2024-02-15T14:33:47;14.90;99.90
1083;DHT22;530;51.448;7.238;2024-02-15T14:36:15;14.80;99.90
1083;DHT22;530;51.448;7.238;2024-02-15T14:38:41;14.80;99.90
1083;DHT22;530;51.448;7.238;2024-02-15T14:41:06;14.80;99.90
1083;DHT22;530;51.448;7.238;2024-02-15T14:43:32;14.80;99.90
1083;DHT22;530;51.448;7.238;2024-02-15T14:45:59;14.70;99.90
1083;DHT22;530;51.448;7.238;2024-02-15T14:48:27;14.80;99.90
1083;DHT22;530;51.448;7.238;2024-02-15T14:50:52;14.80;99.90
1083;DHT22;530;51.448;7.238;2024-02-15T14:53:19;14.80;99.90
1083;DHT22;530;51.448;7.238;2024-02-15T14:55:44;14.80;99.90
1083;DHT22;530;51.448;7.238;2024-02-15T14:58:13;14.70;99.90
1083;DHT22;530;51.448;7.238;2024-02-15T15:00:39;14.70;99.90
1083;DHT22;530;51.448;7.238;2024-02-15T15:03:07;14.60;99.90
1083;DHT22;530;51.448;7.238;2024-02-15T15:05:32;14.60;99.90
1083;DHT22;530;51.448;7.238;2024-02-15T15:08:17;14.60;99.90
1083;DHT22;530;51.448;7.238;2024-02-15T15:11:01;14.50;99.90
1083;DHT22;530;51.448;7.238;2024-02-15T15:13:45;14.50;99.90
1083;DHT22;530;51.448;7.238;2024-02-15T15:16:11;14.50;99.90
1083;DHT22;530;51.448;7.238;2024-02-15T15:18:43;14.50;99.90
1083;DHT22;530;51.448;7.238;2024-02-15T15:21:11;14.40;99.90
1083;DHT22;530;51.448;7.238;2024-02-15T15:23:37;14.40;99.90
1083;DHT22;530;51.448;7.238;2024-02-15T15:26:05;14.40;99.90
1083;DHT22;530;51.448;7.238;2024-02-15T15:28:37;14.30;99.90
1083;DHT22;530;51.448;7.238;2024-02-15T15:31:03;14.30;99.90
1083;DHT22;530;51.448;7.238;2024-02-15T15:33:30;14.30;99.90
1083;DHT22;530;51.448;7.238;2024-02-15T15:36:02;14.30;99.90
1083;DHT22;530;51.448;7.238;2024-02-15T15:38:29;14.40;99.90
1083;DHT22;530;51.448;7.238;2024-02-15T15:40:55;14.40;99.90
1083;DHT22;530;51.448;7.238;2024-02-15T15:43:22;14.40;99.90
1083;DHT22;530;51.448;7.238;2024-02-15T15:45:48;14.40;99.90
1083;DHT22;530;51.448;7.238;2024-02-15T15:48:14;14.30;99.90
1083;DHT22;530;51.448;7.238;2024-02-15T15:50:40;14.30;99.90
1083;DHT22;530;51.448;7.238;2024-02-15T15:53:08;14.30;99.90
1083;DHT22;530;51.448;7.238;2024-02-15T15:55:36;14.30;99.90
1083;DHT22;530;51.448;7.238;2024-02-15T15:58:02;14.30;99.90
1083;DHT22;530;51.448;7.238;2024-02-15T16:00:28;14.20;99.90
1083;DHT22;530;51.448;7.238;2024-02-15T16:02:53;14.20;99.90
1083;DHT22;530;51.448;7.238;2024-02-15T16:05:22;14.20;99.90
1083;DHT22;530;51.448;7.238;2024-02-15T16:07:48;14.20;99.90
1083;DHT22;530;51.448;7.238;2024-02-15T16:10:14;14.20;99.90
1083;DHT22;530;51.448;7.238;2024-02-15T16:12:41;14.10;99.90
1083;DHT22;530;51.448;7.238;2024-02-15T16:15:08;14.20;99.90
1083;DHT22;530;51.448;7.238;2024-02-15T16:17:36;14.20;99.90
1083;DHT22;530;51.448;7.238;2024-02-15T16:20:02;14.30;99.90
1083;DHT22;530;51.448;7.238;2024-02-15T16:22:37;14.20;99.90
1083;DHT22;530;51.448;7.238;2024-02-15T16:25:04;14.20;99.90
1083;DHT22;530;51.448;7.238;2024-02-15T16:27:38;14.20;99.90
1083;DHT22;530;51.448;7.238;2024-02-15T16:30:08;14.20;99.90
1083;DHT22;530;51.448;7.238;2024-02-15T16:32:36;14.20;99.90
1083;DHT22;530;51.448;7.238;2024-02-15T16:35:03;14.20;99.90
1083;DHT22;530;51.448;7.238;2024-02-15T16:37:38;14.10;99.90